createdAt,value
2018-12-25T00:01:34.259Z,11.83
2018-12-25T00:04:02.585Z,11.83
2018-12-25T00:06:30.903Z,12.00
2018-12-25T00:08:59.163Z,11.80
2018-12-25T00:11:27.512Z,12.50
2018-12-25T00:13:55.784Z,12.57
2018-12-25T00:16:24.127Z,12.13
2018-12-25T00:18:52.386Z,12.33
2018-12-25T00:21:22.324Z,11.83
2018-12-25T00:23:50.554Z,12.20
2018-12-25T00:26:18.845Z,12.33
2018-12-25T00:28:47.243Z,12.40
2018-12-25T00:31:15.529Z,12.40
2018-12-25T00:33:43.871Z,12.07
2018-12-25T00:36:19.888Z,12.37
2018-12-25T00:38:51.131Z,11.73
2018-12-25T00:41:19.433Z,11.73
2018-12-25T00:43:47.773Z,12.40
2018-12-25T00:46:16.006Z,11.87
2018-12-25T00:48:44.270Z,12.07
2018-12-25T00:51:12.588Z,14.17
2018-12-25T00:53:40.845Z,13.83
2018-12-25T00:56:09.145Z,12.90
2018-12-25T00:58:37.466Z,12.97
2018-12-25T01:01:05.712Z,12.80
2018-12-25T01:03:34.078Z,12.23
2018-12-25T01:06:02.420Z,13.53
2018-12-25T01:08:33.521Z,14.10
2018-12-25T01:11:01.800Z,12.87
2018-12-25T01:13:30.135Z,13.73
2018-12-25T01:15:58.526Z,13.27
2018-12-25T01:18:26.905Z,12.47
2018-12-25T01:20:55.167Z,12.13
2018-12-25T01:23:23.464Z,13.20
2018-12-25T01:25:51.733Z,14.60
2018-12-25T01:28:20.075Z,14.10
2018-12-25T01:30:48.314Z,13.43
2018-12-25T01:33:16.676Z,14.17
2018-12-25T01:35:44.946Z,13.77
2018-12-25T01:38:13.293Z,14.87
2018-12-25T01:40:41.660Z,14.23
2018-12-25T01:43:10.029Z,15.10
2018-12-25T01:45:38.431Z,15.17
2018-12-25T01:48:06.695Z,15.53
2018-12-25T01:50:34.960Z,15.30
2018-12-25T01:53:07.114Z,16.40
2018-12-25T01:55:35.366Z,15.00
2018-12-25T01:58:03.736Z,14.87
2018-12-25T02:00:32.071Z,15.53
2018-12-25T02:03:00.351Z,14.93
2018-12-25T02:05:28.679Z,14.77
2018-12-25T02:07:57.110Z,14.47
2018-12-25T02:10:27.130Z,14.87
2018-12-25T02:12:55.487Z,15.90
2018-12-25T02:15:23.838Z,14.33
2018-12-25T02:17:52.216Z,14.20
2018-12-25T02:20:20.626Z,14.10
2018-12-25T02:22:48.902Z,13.80
2018-12-25T02:25:17.158Z,14.73
2018-12-25T02:27:45.500Z,14.20
2018-12-25T02:30:13.854Z,15.00
2018-12-25T02:32:42.112Z,13.83
2018-12-25T02:35:10.404Z,13.90
2018-12-25T02:37:38.672Z,14.77
2018-12-25T02:40:06.930Z,14.47
2018-12-25T02:42:35.256Z,13.73
2018-12-25T02:45:03.590Z,14.63
2018-12-25T02:47:31.875Z,13.27
2018-12-25T02:50:00.241Z,14.53
2018-12-25T02:52:28.568Z,14.73
2018-12-25T02:54:57.897Z,15.07
2018-12-25T02:57:26.290Z,15.37
2018-12-25T02:59:54.697Z,14.77
2018-12-25T03:02:23.017Z,15.57
2018-12-25T03:04:51.335Z,14.70
2018-12-25T03:07:19.611Z,15.10
2018-12-25T03:09:47.932Z,14.00
2018-12-25T03:12:16.192Z,14.47
2018-12-25T03:14:44.586Z,14.63
2018-12-25T03:17:16.628Z,13.93
2018-12-25T03:19:44.897Z,14.00
2018-12-25T03:22:13.188Z,14.73
2018-12-25T03:24:41.549Z,15.67
2018-12-25T03:27:09.887Z,14.90
2018-12-25T03:29:38.200Z,15.13
2018-12-25T03:32:06.478Z,14.33
2018-12-25T03:34:34.867Z,15.67
2018-12-25T03:37:03.137Z,15.13
2018-12-25T03:39:31.536Z,16.13
2018-12-25T03:41:59.794Z,16.27
2018-12-25T03:44:28.041Z,15.50
2018-12-25T03:46:56.315Z,16.23
2018-12-25T03:49:24.594Z,15.77
2018-12-25T03:51:53.013Z,15.27
2018-12-25T03:54:24.131Z,16.03
2018-12-25T03:56:52.470Z,16.43
2018-12-25T03:59:23.782Z,15.57
2018-12-25T04:01:52.181Z,15.60
2018-12-25T04:04:20.457Z,16.10
2018-12-25T04:06:48.731Z,16.07
2018-12-25T04:09:19.739Z,16.87
2018-12-25T04:11:48.071Z,17.10
2018-12-25T04:14:16.304Z,16.53
2018-12-25T04:16:44.671Z,17.37
2018-12-25T04:19:13.042Z,17.33
2018-12-25T04:21:41.280Z,16.47
2018-12-25T04:24:09.539Z,18.37
2018-12-25T04:26:37.864Z,17.10
2018-12-25T04:29:07.739Z,18.37
2018-12-25T04:31:36.028Z,18.00
2018-12-25T04:34:04.288Z,16.60
2018-12-25T04:36:32.596Z,16.70
2018-12-25T04:39:00.863Z,17.23
2018-12-25T04:41:29.128Z,16.93
2018-12-25T04:43:57.395Z,18.03
2018-12-25T04:46:25.740Z,17.93
2018-12-25T04:48:54.019Z,17.53
2018-12-25T04:51:22.395Z,17.83
2018-12-25T04:53:50.672Z,17.50
2018-12-25T04:56:18.997Z,18.17
2018-12-25T04:58:47.374Z,18.87
2018-12-25T05:01:15.631Z,18.30
2018-12-25T05:03:43.971Z,17.20
2018-12-25T05:06:12.344Z,16.87
2018-12-25T05:08:40.652Z,17.17
2018-12-25T05:11:08.931Z,17.33
2018-12-25T05:13:37.222Z,17.40
2018-12-25T05:16:05.464Z,16.83
2018-12-25T05:18:34.581Z,16.57
2018-12-25T05:21:03.038Z,17.33
2018-12-25T05:23:31.315Z,16.97
2018-12-25T05:25:59.602Z,17.97
2018-12-25T05:28:27.810Z,18.47
2018-12-25T05:30:56.077Z,17.33
2018-12-25T05:33:24.350Z,17.87
2018-12-25T05:35:52.695Z,18.37
2018-12-25T05:38:20.989Z,18.30
2018-12-25T05:40:49.229Z,17.27
2018-12-25T05:43:17.575Z,18.03
2018-12-25T05:45:45.878Z,17.53
2018-12-25T05:48:14.134Z,17.30
2018-12-25T05:50:46.594Z,16.67
2018-12-25T05:53:12.575Z,17.87
2018-12-25T05:55:40.846Z,16.70
2018-12-25T05:58:10.305Z,16.23
2018-12-25T06:00:38.527Z,16.53
2018-12-25T06:03:06.805Z,17.50
2018-12-25T06:05:35.146Z,17.40
2018-12-25T06:08:03.468Z,16.50
2018-12-25T06:10:31.740Z,17.57
2018-12-25T06:13:00.011Z,17.40
2018-12-25T06:15:28.282Z,18.53
2018-12-25T06:17:56.614Z,17.73
2018-12-25T06:20:26.559Z,18.33
2018-12-25T06:22:54.826Z,19.67
2018-12-25T06:25:23.147Z,19.43
2018-12-25T06:27:51.460Z,19.90
2018-12-25T06:30:19.757Z,19.80
2018-12-25T06:32:48.038Z,18.93
2018-12-25T06:35:16.453Z,18.60
2018-12-25T06:37:44.813Z,19.93
2018-12-25T06:40:13.172Z,20.33
2018-12-25T06:42:41.501Z,20.20
2018-12-25T06:45:09.922Z,20.10
2018-12-25T06:47:38.266Z,19.70
2018-12-25T06:50:06.575Z,21.37
2018-12-25T06:52:34.894Z,19.90
2018-12-25T06:55:03.244Z,20.00
2018-12-25T06:57:31.504Z,21.17
2018-12-25T06:59:59.915Z,21.53
2018-12-25T07:02:28.220Z,20.37
2018-12-25T07:04:56.554Z,21.23
2018-12-25T07:07:24.849Z,21.40
2018-12-25T07:09:53.220Z,21.63
2018-12-25T07:12:21.503Z,21.23
2018-12-25T07:14:49.838Z,20.93
2018-12-25T07:17:18.153Z,21.70
2018-12-25T07:19:46.495Z,21.20
2018-12-25T07:22:14.747Z,22.43
2018-12-25T07:24:43.010Z,21.73
2018-12-25T07:27:11.280Z,21.83
2018-12-25T07:29:39.582Z,22.00
2018-12-25T07:32:07.926Z,24.03
2018-12-25T07:34:36.163Z,22.83
2018-12-25T07:37:04.433Z,22.27
2018-12-25T07:39:32.722Z,22.07
2018-12-25T07:42:01.035Z,23.43
2018-12-25T07:44:29.337Z,22.77
2018-12-25T07:46:57.595Z,22.53
2018-12-25T07:49:25.844Z,23.10
2018-12-25T07:51:54.154Z,22.33
2018-12-25T07:54:22.416Z,21.10
2018-12-25T07:56:50.694Z,22.27
2018-12-25T07:59:21.995Z,21.30
2018-12-25T08:01:50.262Z,21.07
2018-12-25T08:04:18.557Z,20.70
2018-12-25T08:06:46.823Z,21.47
2018-12-25T08:09:15.098Z,19.83
2018-12-25T08:11:43.469Z,20.13
2018-12-25T08:14:11.844Z,19.90
2018-12-25T08:16:43.200Z,20.93
2018-12-25T08:19:11.557Z,21.77
2018-12-25T08:21:39.845Z,22.17
2018-12-25T08:24:08.187Z,21.87
2018-12-25T08:26:36.481Z,22.60
2018-12-25T08:29:04.748Z,22.70
2018-12-25T08:31:33.047Z,22.23
2018-12-25T08:34:01.359Z,21.80
2018-12-25T08:36:29.659Z,21.40
2018-12-25T08:38:57.932Z,21.67
2018-12-25T08:41:26.190Z,20.43
2018-12-25T08:43:54.428Z,19.67
2018-12-25T08:46:22.773Z,21.03
2018-12-25T08:48:50.987Z,19.37
2018-12-25T08:51:19.261Z,19.37
2018-12-25T08:53:47.500Z,21.37
2018-12-25T08:56:15.744Z,21.50
2018-12-25T08:58:43.993Z,21.40
2018-12-25T09:01:12.237Z,20.17
2018-12-25T09:03:40.526Z,19.80
2018-12-25T09:06:08.772Z,22.03
2018-12-25T09:08:37.040Z,23.60
2018-12-25T09:11:05.318Z,20.47
2018-12-25T09:13:33.569Z,21.90
2018-12-25T09:16:01.815Z,24.00
2018-12-25T09:18:30.105Z,28.07
2018-12-25T09:20:58.308Z,24.63
2018-12-25T09:23:26.588Z,24.43
2018-12-25T09:25:54.826Z,27.77
2018-12-25T09:28:23.068Z,21.97
2018-12-25T09:30:51.318Z,21.47
2018-12-25T09:33:19.556Z,23.37
2018-12-25T09:35:47.828Z,20.53
2018-12-25T09:38:16.084Z,19.83
2018-12-25T09:40:44.320Z,19.07
2018-12-25T09:43:12.572Z,19.03
2018-12-25T09:45:40.817Z,19.17
2018-12-25T09:48:13.264Z,21.60
2018-12-25T09:50:39.125Z,19.87
2018-12-25T09:53:07.373Z,17.97
2018-12-25T09:55:35.617Z,18.30
2018-12-25T09:58:03.862Z,18.30
2018-12-25T10:00:32.140Z,18.27
2018-12-25T10:03:00.390Z,20.97
2018-12-25T10:05:28.626Z,20.37
2018-12-25T10:07:56.871Z,18.67
2018-12-25T10:10:25.131Z,19.50
2018-12-25T10:12:53.401Z,18.77
2018-12-25T10:15:21.647Z,19.30
2018-12-25T10:17:49.889Z,18.17
2018-12-25T10:20:18.132Z,18.97
2018-12-25T10:22:46.381Z,18.50
2018-12-25T10:25:14.649Z,17.17
2018-12-25T10:27:42.891Z,21.47
2018-12-25T10:30:11.140Z,20.30
2018-12-25T10:32:39.382Z,26.73
2018-12-25T10:35:07.635Z,21.63
2018-12-25T10:37:35.914Z,16.90
2018-12-25T10:40:05.193Z,31.40
2018-12-25T10:42:33.440Z,29.27
2018-12-25T10:45:01.685Z,20.70
2018-12-25T10:47:29.932Z,18.90
2018-12-25T10:49:58.200Z,16.77
2018-12-25T10:52:26.452Z,16.20
2018-12-25T10:54:54.692Z,16.63
2018-12-25T10:57:22.943Z,17.03
2018-12-25T10:59:51.189Z,15.53
2018-12-25T11:02:19.467Z,14.03
2018-12-25T11:04:48.110Z,15.57
2018-12-25T11:07:16.356Z,16.77
2018-12-25T11:09:44.598Z,19.90
2018-12-25T11:12:12.847Z,19.90
2018-12-25T11:14:41.283Z,15.93
2018-12-25T11:17:09.526Z,15.37
2018-12-25T11:19:37.777Z,17.23
2018-12-25T11:22:06.072Z,18.23
2018-12-25T11:24:34.319Z,17.20
2018-12-25T11:27:02.590Z,16.17
2018-12-25T11:29:30.835Z,15.07
2018-12-25T11:31:59.082Z,14.03
2018-12-25T11:34:27.328Z,14.63
2018-12-25T11:36:55.576Z,16.87
2018-12-25T11:39:23.847Z,14.77
2018-12-25T11:41:52.092Z,12.43
2018-12-25T11:44:20.341Z,12.97
2018-12-25T11:46:48.593Z,12.70
2018-12-25T11:49:16.848Z,13.63
2018-12-25T11:51:45.117Z,12.87
2018-12-25T11:54:13.361Z,13.63
2018-12-25T11:56:41.605Z,12.07
2018-12-25T11:59:09.849Z,11.67
2018-12-25T12:01:38.095Z,12.07
2018-12-25T12:04:06.371Z,12.17
2018-12-25T12:06:34.618Z,13.40
2018-12-25T12:09:02.954Z,12.97
2018-12-25T12:11:31.204Z,12.37
2018-12-25T12:13:59.442Z,16.70
2018-12-25T12:16:27.685Z,13.73
2018-12-25T12:18:55.955Z,12.77
2018-12-25T12:21:24.236Z,11.97
2018-12-25T12:23:52.485Z,12.43
2018-12-25T12:26:20.733Z,12.93
2018-12-25T12:28:49.059Z,12.77
2018-12-25T12:31:17.327Z,13.27
2018-12-25T12:33:46.085Z,12.33
2018-12-25T12:36:14.407Z,17.93
2018-12-25T12:38:42.657Z,19.23
2018-12-25T12:41:10.931Z,20.47
2018-12-25T12:43:39.180Z,17.90
2018-12-25T12:46:07.456Z,17.80
2018-12-25T12:48:35.690Z,14.43
2018-12-25T12:51:03.943Z,12.83
2018-12-25T12:53:32.188Z,12.57
2018-12-25T12:56:00.435Z,13.30
2018-12-25T12:58:28.704Z,13.97
2018-12-25T13:00:56.944Z,13.80
2018-12-25T13:03:25.258Z,14.50
2018-12-25T13:05:53.628Z,14.63
2018-12-25T13:08:21.844Z,13.83
2018-12-25T13:10:50.130Z,13.87
2018-12-25T13:13:21.262Z,14.70
2018-12-25T13:15:49.506Z,13.07
2018-12-25T13:18:17.795Z,11.70
2018-12-25T13:20:46.034Z,15.83
2018-12-25T13:23:14.285Z,13.13
2018-12-25T13:25:42.557Z,12.73
2018-12-25T13:28:10.802Z,14.47
2018-12-25T13:30:39.046Z,14.17
2018-12-25T13:33:07.316Z,15.23
2018-12-25T13:35:35.559Z,17.53
2018-12-25T13:38:03.808Z,15.43
2018-12-25T13:40:32.204Z,18.90
2018-12-25T13:43:00.503Z,15.93
2018-12-25T13:45:28.714Z,15.50
2018-12-25T13:47:56.975Z,15.60
2018-12-25T13:50:26.116Z,16.73
2018-12-25T13:53:02.563Z,15.23
2018-12-25T13:55:24.362Z,14.17
2018-12-25T13:57:52.608Z,15.23
2018-12-25T14:00:21.340Z,14.40
2018-12-25T14:02:49.983Z,14.23
2018-12-25T14:05:18.253Z,18.73
2018-12-25T14:07:46.509Z,17.50
2018-12-25T14:10:15.131Z,16.87
2018-12-25T14:12:43.378Z,21.33
2018-12-25T14:15:11.899Z,17.87
2018-12-25T14:17:40.239Z,17.87
2018-12-25T14:20:08.500Z,15.63
2018-12-25T14:22:37.045Z,17.20
2018-12-25T14:25:05.972Z,14.43
2018-12-25T14:27:34.228Z,15.50
2018-12-25T14:30:02.688Z,12.63
2018-12-25T14:32:30.939Z,15.00
2018-12-25T14:34:59.189Z,16.50
2018-12-25T14:37:27.430Z,21.10
2018-12-25T14:39:55.685Z,15.00
2018-12-25T14:42:23.923Z,20.93
2018-12-25T14:44:52.173Z,15.50
2018-12-25T14:47:20.415Z,15.53
2018-12-25T14:49:48.657Z,17.57
2018-12-25T14:52:18.551Z,15.43
2018-12-25T14:54:46.791Z,13.30
2018-12-25T14:57:15.040Z,19.63
2018-12-25T14:59:43.287Z,18.50
2018-12-25T15:02:11.526Z,17.00
2018-12-25T15:04:39.770Z,15.80
2018-12-25T15:07:08.470Z,15.33
2018-12-25T15:09:36.770Z,12.07
2018-12-25T15:12:05.025Z,13.10
2018-12-25T15:14:33.281Z,15.47
2018-12-25T15:17:01.524Z,15.43
2018-12-25T15:19:29.784Z,14.83
2018-12-25T15:21:58.034Z,13.87
2018-12-25T15:24:26.330Z,12.33
2018-12-25T15:26:54.650Z,13.83
2018-12-25T15:29:23.539Z,13.47
2018-12-25T15:31:51.920Z,13.77
2018-12-25T15:34:20.167Z,14.33
2018-12-25T15:36:48.409Z,13.80
2018-12-25T15:39:16.666Z,19.60
2018-12-25T15:41:44.914Z,22.37
2018-12-25T15:44:13.154Z,22.60
2018-12-25T15:46:41.404Z,15.37
2018-12-25T15:49:09.654Z,15.13
2018-12-25T15:51:37.966Z,14.23
2018-12-25T15:54:06.213Z,14.53
2018-12-25T15:56:34.534Z,13.97
2018-12-25T15:59:02.787Z,14.30
2018-12-25T16:01:31.031Z,13.43
2018-12-25T16:03:59.269Z,14.63
2018-12-25T16:06:27.519Z,13.97
2018-12-25T16:08:55.770Z,13.57
2018-12-25T16:11:24.020Z,13.50
2018-12-25T16:13:52.264Z,14.23
2018-12-25T16:16:20.514Z,13.20
2018-12-25T16:18:55.642Z,14.03
2018-12-25T16:21:23.923Z,13.30
2018-12-25T16:23:52.172Z,14.57
2018-12-25T16:26:20.406Z,14.50
2018-12-25T16:28:48.747Z,14.27
2018-12-25T16:31:16.981Z,15.00
2018-12-25T16:33:45.252Z,15.03
2018-12-25T16:36:13.526Z,16.17
2018-12-25T16:38:41.765Z,16.70
2018-12-25T16:41:10.017Z,17.37
2018-12-25T16:43:38.268Z,17.57
2018-12-25T16:46:06.532Z,15.27
2018-12-25T16:48:34.792Z,15.33
2018-12-25T16:51:03.033Z,15.13
2018-12-25T16:53:31.275Z,16.23
2018-12-25T16:55:59.536Z,17.50
2018-12-25T16:58:28.124Z,18.50
2018-12-25T17:00:56.704Z,17.83
2018-12-25T17:03:24.955Z,17.57
2018-12-25T17:05:53.510Z,17.37
2018-12-25T17:08:21.905Z,18.30
2018-12-25T17:10:50.178Z,19.43
2018-12-25T17:13:18.422Z,18.10
2018-12-25T17:15:46.670Z,19.53
2018-12-25T17:18:14.922Z,19.07
2018-12-25T17:20:43.180Z,17.57
2018-12-25T17:23:11.464Z,18.10
2018-12-25T17:25:40.055Z,18.90
2018-12-25T17:28:08.340Z,18.17
2018-12-25T17:30:36.679Z,17.33
2018-12-25T17:33:04.998Z,17.10
2018-12-25T17:35:39.308Z,17.40
2018-12-25T17:38:09.363Z,17.67
2018-12-25T17:40:38.249Z,17.63
2018-12-25T17:43:06.605Z,16.50
2018-12-25T17:45:34.903Z,16.50
2018-12-25T17:48:03.524Z,17.40
2018-12-25T17:50:31.920Z,17.63
2018-12-25T17:53:00.164Z,16.20
2018-12-25T17:55:28.484Z,15.80
2018-12-25T17:57:56.834Z,16.73
2018-12-25T18:00:25.200Z,17.03
2018-12-25T18:02:53.562Z,17.03
2018-12-25T18:05:22.211Z,18.83
2018-12-25T18:07:50.569Z,18.70
2018-12-25T18:10:18.968Z,17.93
2018-12-25T18:12:47.243Z,19.90
2018-12-25T18:15:15.500Z,20.20
2018-12-25T18:17:43.737Z,19.50
2018-12-25T18:20:12.157Z,19.73
2018-12-25T18:22:40.570Z,19.67
2018-12-25T18:25:08.842Z,19.77
2018-12-25T18:27:37.235Z,21.07
2018-12-25T18:30:07.020Z,20.17
2018-12-25T18:32:35.454Z,19.77
2018-12-25T18:35:04.021Z,20.07
2018-12-25T18:37:32.566Z,18.90
2018-12-25T18:40:01.144Z,19.53
2018-12-25T18:42:29.399Z,20.00
2018-12-25T18:44:57.832Z,20.47
2018-12-25T18:47:26.178Z,22.13
2018-12-25T18:49:54.494Z,23.83
2018-12-25T18:52:23.120Z,20.50
2018-12-25T18:54:51.493Z,20.47
2018-12-25T18:57:19.984Z,22.10
2018-12-25T18:59:48.519Z,22.30
2018-12-25T19:02:18.738Z,22.37
2018-12-25T19:04:46.756Z,23.17
2018-12-25T19:07:15.126Z,25.03
2018-12-25T19:09:43.631Z,26.33
2018-12-25T19:12:12.039Z,24.53
2018-12-25T19:14:43.655Z,22.73
2018-12-25T19:17:12.089Z,23.10
2018-12-25T19:19:40.683Z,24.47
2018-12-25T19:22:09.357Z,24.60
2018-12-25T19:24:37.755Z,25.90
2018-12-25T19:27:06.008Z,25.07
2018-12-25T19:29:34.264Z,26.57
2018-12-25T19:32:02.869Z,25.67
2018-12-25T19:34:31.194Z,26.80
2018-12-25T19:36:59.660Z,26.07
2018-12-25T19:39:27.928Z,25.33
2018-12-25T19:41:56.233Z,25.87
2018-12-25T19:44:24.612Z,26.30
2018-12-25T19:46:53.134Z,26.13
2018-12-25T19:49:21.387Z,27.93
2018-12-25T19:51:50.158Z,27.50
2018-12-25T19:54:18.457Z,25.70
2018-12-25T19:56:46.785Z,25.70
2018-12-25T19:59:15.169Z,26.63
2018-12-25T20:01:43.452Z,28.73
2018-12-25T20:04:15.044Z,27.70
2018-12-25T20:06:55.689Z,26.23
2018-12-25T20:09:39.583Z,26.50
2018-12-25T20:12:39.861Z,28.07
2018-12-25T20:15:35.787Z,27.37
2018-12-25T20:18:25.671Z,31.37
2018-12-25T20:21:12.355Z,29.77
2018-12-25T20:23:59.017Z,28.97
2018-12-25T20:26:51.691Z,29.47
2018-12-25T20:29:57.976Z,29.13
2018-12-25T20:32:35.110Z,28.53
2018-12-25T20:35:18.269Z,29.10
2018-12-25T20:38:01.776Z,27.97
2018-12-25T20:40:36.350Z,28.07
2018-12-25T20:43:16.650Z,27.47
2018-12-25T20:46:04.938Z,27.97
2018-12-25T20:48:45.305Z,25.37
2018-12-25T20:51:28.731Z,26.33
2018-12-25T20:54:00.230Z,25.80
2018-12-25T20:56:48.227Z,26.73
2018-12-25T20:59:40.977Z,28.77
2018-12-25T21:02:46.978Z,28.80
2018-12-25T21:05:47.149Z,29.17
2018-12-25T21:08:44.533Z,32.10
2018-12-25T21:11:19.122Z,35.67
2018-12-25T21:13:50.658Z,35.60
2018-12-25T21:16:30.923Z,35.03
2018-12-25T21:19:25.446Z,32.97
2018-12-25T21:22:10.484Z,33.77
2018-12-25T21:25:15.784Z,34.00
2018-12-25T21:27:43.354Z,33.97
2018-12-25T21:30:13.565Z,32.77
2018-12-25T21:32:41.816Z,33.67
2018-12-25T21:35:18.904Z,36.60
2018-12-25T21:37:47.595Z,33.47
2018-12-25T21:40:16.259Z,35.60
2018-12-25T21:42:44.541Z,34.77
2018-12-25T21:45:12.854Z,32.17
2018-12-25T21:47:41.369Z,33.90
2018-12-25T21:50:09.643Z,32.43
2018-12-25T21:52:37.897Z,30.97
2018-12-25T21:55:08.616Z,33.03
2018-12-25T21:57:37.435Z,32.97
2018-12-25T22:00:08.958Z,34.17
2018-12-25T22:02:37.276Z,34.13
2018-12-25T22:05:05.525Z,37.53
2018-12-25T22:07:33.798Z,35.60
2018-12-25T22:10:02.061Z,35.03
2018-12-25T22:12:30.301Z,34.27
2018-12-25T22:14:58.583Z,33.23
2018-12-25T22:17:27.088Z,32.07
2018-12-25T22:19:55.407Z,34.40
2018-12-25T22:22:23.668Z,33.20
2018-12-25T22:24:51.980Z,34.50
2018-12-25T22:27:20.455Z,37.37
2018-12-25T22:29:48.735Z,34.90
2018-12-25T22:32:17.021Z,35.73
2018-12-25T22:34:45.279Z,34.37
2018-12-25T22:37:13.522Z,36.10
2018-12-25T22:39:41.789Z,35.27
2018-12-25T22:42:10.116Z,34.20
2018-12-25T22:44:38.342Z,35.67
2018-12-25T22:47:06.637Z,34.13
2018-12-25T22:49:34.906Z,34.77
2018-12-25T22:52:03.188Z,36.50
2018-12-25T22:54:31.498Z,36.93
2018-12-25T22:56:59.829Z,37.23
2018-12-25T22:59:28.079Z,36.00
2018-12-25T23:01:56.404Z,39.67
2018-12-25T23:04:24.667Z,36.87
2018-12-25T23:06:52.947Z,36.67
2018-12-25T23:09:21.204Z,35.80
2018-12-25T23:11:49.453Z,35.30
2018-12-25T23:14:17.784Z,38.77
2018-12-25T23:16:46.029Z,38.23
2018-12-25T23:19:14.306Z,38.57
2018-12-25T23:21:42.767Z,38.30
2018-12-25T23:24:11.138Z,40.00
2018-12-25T23:26:41.495Z,42.00
2018-12-25T23:29:09.831Z,39.50
2018-12-25T23:31:38.225Z,36.03
2018-12-25T23:34:06.491Z,36.97
2018-12-25T23:36:34.782Z,35.60
2018-12-25T23:39:03.120Z,34.43
2018-12-25T23:41:31.385Z,36.80
2018-12-25T23:43:59.684Z,34.67
2018-12-25T23:46:28.024Z,38.43
2018-12-25T23:48:56.281Z,34.77
2018-12-25T23:51:24.552Z,35.33
2018-12-25T23:53:52.832Z,35.20
2018-12-25T23:56:22.710Z,37.77
2018-12-25T23:58:51.109Z,37.47
